Estación Meteorológica Peña el Pijo (Robertgarden) [ 10/20/18 09:05:40 CEST ]

Fecha Hora Presion(HPa) Temp (°C) Humedad % Rocio (°C) Viento ( m/s) Direccion Lluvia 1Hora(mm) Lluvia 24H(mm) LLuvia Total(mm)
2018-Apr-16 01:01:33 1005.600 9.6 73 5.0         200.98
2018-Apr-16 02:01:39 1005.400 10.4 73 5.8         200.98
2018-Apr-16 03:01:36 1006.800 6.6 78 3.0     1.55 1.55 202.53
2018-Apr-16 04:01:35 1005.100 5.9 81 2.9     0.51 2.07 203.05
2018-Apr-16 05:01:49 1004.800 7.1 83 4.4       2.07 203.05
2018-Apr-16 06:01:42 1005.000 6.8 80 3.6       2.07 203.05
2018-Apr-16 07:01:43 1006.100 7.2 78 3.6 4.2 WNW   2.07 203.05
2018-Apr-16 09:31:49 1006.200 7.5 75 3.3 2.8 N   2.07 203.05
2018-Apr-16 10:01:48 1006.800 8.0 69 2.7       2.07 203.05
2018-Apr-16 11:01:50 1007.300 9.1 64 2.6       2.07 203.05
2018-Apr-16 12:01:52 1007.700 11.5 57 3.2       2.07 203.05
2018-Apr-16 13:01:55 1008.100 11.5 55 2.7       2.07 203.05
2018-Apr-16 14:01:44 1007.400 14.8 49 4.2       2.07 203.05
2018-Apr-16 15:01:44 1007.700 16.1 44 3.8       2.07 203.05
2018-Apr-16 16:01:46 1007.700 16.1 40 2.5       2.07 203.05
2018-Apr-16 17:01:51 1008.100 15.8 42 2.9       2.07 203.05
2018-Apr-16 18:01:52 1008.200 14.9 43 2.4       2.07 203.05
2018-Apr-16 19:01:49 1008.800 14.3 46 2.8       2.07 203.05
2018-Apr-16 20:01:49 1009.200 11.9 53 2.6       2.07 203.05
2018-Apr-16 21:01:46 1010.100 10.4 58 2.5       2.07 203.05
2018-Apr-16 22:01:43 1010.900 8.1 65 1.9       2.07 203.05
2018-Apr-16 23:01:42 1011.800 7.2 70 2.1       2.07 203.05

Temperatura Máxima:16°    Temperatura Mínima:
Presión Máxima:1011.800 Hpa    Presión Mínima:1004.800 Hpa


Volver